Time;durP1;ratioP1;P1;durP2;ratioP2;P2;SDS_P1;SDS_P2;PMS_P1;PMS_P2;Temp;Humidity;BMP_temperature;BMP_pressure;BME280_temperature;BME280_humidity;BME280_pressure;Samples;Min_cycle;Max_cycle;Signal;HPM_P1;HPM_P2
2023/09/16 06:32:01;;;;;;;11.23;5.93;;;;;;;18.91;72.49;100357.78;4903749;29;20213;-77
2023/09/16 06:37:45;;;;;;;10.50;5.47;;;;;;;18.96;73.48;100366.06;5276857;23;20244;-71
2023/09/16 07:06:23;;;;;;;15.50;6.07;;;;;;;19.32;72.65;100348.72;5508661;23;20462;-73
2023/09/16 07:37:55;;;;;;;11.00;5.63;;;;;;;19.80;71.66;100378.84;5159482;23;20287;-76
2023/09/16 07:58:19;;;;;;;7.17;5.30;;;;;;;20.28;70.24;100392.81;5020493;23;20230;-75
2023/09/16 08:01:01;;;;;;;7.10;5.03;;;;;;;20.35;70.29;100387.41;4969092;28;20290;-76
2023/09/16 08:04:25;;;;;;;;;;;;;;;;;;;;;
2023/09/16 08:07:05;;;;;;;12.07;5.57;;;;;;;20.55;68.82;100390.84;4972887;28;20337;-76
2023/09/16 08:09:39;;;;;;;12.40;5.87;;;;;;;20.67;68.36;100392.63;4982387;28;20198;-79
2023/09/16 08:12:12;;;;;;;7.10;4.87;;;;;;;20.84;66.85;100398.38;4985949;28;20264;-75
2023/09/16 08:14:50;;;;;;;10.00;6.20;;;;;;;21.03;67.95;100402.78;4975604;28;20209;-71
2023/09/16 08:17:19;;;;;;;8.87;5.53;;;;;;;21.25;67.47;100406.00;4952337;28;20237;-80
2023/09/16 08:22:47;;;;;;;9.17;6.23;;;;;;;22.19;64.07;100395.97;4975955;28;20253;-77
2023/09/16 08:25:25;;;;;;;9.13;5.80;;;;;;;23.17;60.71;100404.63;4991372;28;20202;-74
2023/09/16 08:27:59;;;;;;;15.03;7.63;;;;;;;24.70;55.76;100398.91;4987347;28;20898;-69
2023/09/16 08:30:32;;;;;;;8.70;6.13;;;;;;;27.47;48.11;100402.13;4974296;28;20194;-78
2023/09/16 08:36:40;;;;;;;13.40;7.00;;;;;;;34.74;33.25;100403.06;4913955;28;21047;-74
2023/09/16 08:39:26;;;;;;;16.80;6.80;;;;;;;37.11;29.70;100397.63;4976391;28;20210;-78
2023/09/16 08:42:18;;;;;;;12.98;7.40;;;;;;;38.73;27.56;100395.34;4977756;28;20246;-75
2023/09/16 08:45:22;;;;;;;8.35;5.80;;;;;;;40.25;25.52;100390.78;4988076;28;20207;-70
2023/09/16 08:48:22;;;;;;;10.85;5.68;;;;;;;41.58;23.86;100397.09;4971640;28;20222;-70
2023/09/16 08:53:45;;;;;;;10.40;5.35;;;;;;;43.82;21.09;100391.59;3255999;26;20251;-69
2023/09/16 09:00:33;;;;;;;8.90;5.22;;;;;;;46.38;18.89;100379.38;5070964;23;20603;-78
2023/09/16 09:03:47;;;;;;;8.20;5.65;;;;;;;47.48;18.01;100373.38;4952956;28;20204;-74
2023/09/16 09:09:35;;;;;;;7.25;5.00;;;;;;;48.29;17.51;100364.09;4900485;29;20247;-75
2023/09/16 09:12:41;;;;;;;8.88;6.72;;;;;;;48.53;17.10;100368.84;4825551;29;20532;-76
2023/09/16 09:15:18;;;;;;;11.30;6.05;;;;;;;45.86;19.19;100377.81;4814952;29;20215;-77
2023/09/16 09:23:57;;;;;;;9.27;7.43;;;;;;;36.14;29.56;100391.47;4802822;29;21144;-77
2023/09/16 09:27:00;;;;;;;7.95;6.40;;;;;;;37.87;27.73;100389.47;4822605;29;20227;-72
2023/09/16 09:32:55;;;;;;;7.18;6.25;;;;;;;38.75;26.51;100373.66;4811290;29;20238;-79
2023/09/16 09:35:30;;;;;;;8.30;6.28;;;;;;;38.83;26.23;100363.63;4839714;29;20205;-83
2023/09/16 09:38:03;;;;;;;7.68;5.80;;;;;;;38.70;26.69;100370.28;4894360;29;20213;-72
2023/09/16 09:44:05;;;;;;;8.75;5.47;;;;;;;36.20;29.37;100368.13;4868689;29;20282;-72
2023/09/16 09:46:50;;;;;;;7.15;6.05;;;;;;;33.65;33.00;100365.34;4888438;29;20217;-75
2023/09/16 09:53:24;;;;;;;11.77;6.68;;;;;;;29.21;41.40;100367.97;4873873;29;20226;-74
2023/09/16 09:59:36;;;;;;;9.65;6.63;;;;;;;27.16;46.39;100374.69;4884739;29;20299;-76
2023/09/16 10:02:13;;;;;;;8.48;6.00;;;;;;;26.62;48.54;100373.03;4881469;29;20214;-71
2023/09/16 10:11:14;;;;;;;12.02;8.25;;;;;;;25.95;49.97;100376.81;4828889;29;20649;-75
2023/09/16 10:14:26;;;;;;;15.60;8.25;;;;;;;25.64;50.70;100378.28;4835852;29;20299;-76
2023/09/16 10:20:18;;;;;;;11.30;8.10;;;;;;;25.38;52.18;100379.78;4840198;29;20247;-69
2023/09/16 10:23:04;;;;;;;11.38;7.93;;;;;;;25.26;53.12;100372.75;4841856;29;21994;-68
2023/09/16 10:35:23;;;;;;;12.88;8.10;;;;;;;25.02;55.46;100374.81;4847942;29;20287;-70
2023/09/16 10:38:16;;;;;;;12.43;9.45;;;;;;;25.57;54.65;100374.06;4848045;29;20210;-70
2023/09/16 10:41:21;;;;;;;10.75;7.85;;;;;;;26.15;52.88;100368.13;5246338;23;20245;-69
2023/09/16 10:43:55;;;;;;;13.43;7.03;;;;;;;26.88;51.16;100366.78;4972432;28;20262;-71
2023/09/16 10:46:57;;;;;;;9.43;7.32;;;;;;;27.28;50.12;100360.88;4970024;28;20207;-69
2023/09/16 10:52:48;;;;;;;9.55;7.18;;;;;;;26.64;50.75;100358.13;4961996;28;20435;-76
2023/09/16 10:55:53;;;;;;;12.30;7.47;;;;;;;26.51;51.66;100345.72;4970246;28;20217;-70
2023/09/16 10:58:56;;;;;;;11.45;7.65;;;;;;;26.65;51.73;100348.84;4919872;29;20291;-74
2023/09/16 11:02:21;;;;;;;11.88;8.07;;;;;;;27.01;50.42;100350.03;4912356;29;20220;-73
2023/09/16 11:05:19;;;;;;;12.20;7.70;;;;;;;26.94;50.48;100354.88;4854236;29;20358;-70
2023/09/16 11:10:35;;;;;;;13.45;7.90;;;;;;;27.11;50.12;100352.84;4976715;23;20585;-75
2023/09/16 11:20:20;;;;;;;13.85;7.55;;;;;;;27.35;49.32;100351.41;4967764;28;20739;-75
2023/09/16 11:23:23;;;;;;;11.00;8.02;;;;;;;27.68;48.82;100350.31;4968975;28;20207;-71
2023/09/16 11:30:05;;;;;;;11.68;8.60;;;;;;;30.01;43.52;100338.06;4954370;28;20613;-74
2023/09/16 11:33:10;;;;;;;9.25;7.78;;;;;;;31.72;40.03;100336.03;4956364;28;20693;-74
2023/09/16 11:39:55;;;;;;;8.80;6.32;;;;;;;34.07;35.50;100318.31;4965333;28;20235;-75
2023/09/16 11:42:58;;;;;;;8.18;6.32;;;;;;;33.80;36.44;100316.38;4973207;28;20235;-74
2023/09/16 11:45:45;;;;;;;7.72;6.55;;;;;;;33.10;37.67;100308.31;4976802;28;20270;-71
2023/09/16 11:49:08;;;;;;;8.25;7.32;;;;;;;32.43;37.96;100309.66;4972283;28;20207;-71
2023/09/16 11:52:14;;;;;;;10.60;6.53;;;;;;;32.42;38.49;100311.59;4970042;28;20218;-70
2023/09/16 12:05:25;;;;;;;8.85;6.28;;;;;;;32.07;38.79;100301.88;4940618;28;20210;-77
2023/09/16 12:08:15;;;;;;;9.30;6.10;;;;;;;32.27;38.54;100300.84;4956137;28;20210;-75
2023/09/16 12:14:39;;;;;;;10.50;5.80;;;;;;;33.59;36.73;100277.47;4947524;28;20252;-75
2023/09/16 12:41:25;;;;;;;9.10;5.38;;;;;;;28.36;45.83;100274.00;4946444;28;20627;-76
2023/09/16 12:48:15;;;;;;;7.75;5.85;;;;;;;28.22;46.17;100267.44;4933874;29;20296;-76
2023/09/16 13:05:29;;;;;;;7.47;5.80;;;;;;;26.93;49.75;100249.84;4912009;29;20220;-74
2023/09/16 13:08:25;;;;;;;7.72;5.43;;;;;;;26.80;50.32;100242.13;4910873;29;20212;-73
2023/09/16 13:11:13;;;;;;;10.50;5.97;;;;;;;26.82;50.04;100240.78;4924243;29;20201;-77
2023/09/16 13:13:52;;;;;;;7.32;5.13;;;;;;;26.72;50.49;100237.16;4924043;29;20231;-76
2023/09/16 13:16:43;;;;;;;6.43;5.68;;;;;;;26.65;50.38;100242.00;4922842;29;20260;-79
2023/09/16 13:19:20;;;;;;;7.40;5.95;;;;;;;26.58;50.87;100240.28;4923129;29;20632;-72
2023/09/16 13:25:12;;;;;;;7.63;6.32;;;;;;;26.41;50.33;100236.06;4920864;29;20305;-79
2023/09/16 13:34:55;;;;;;;8.07;5.65;;;;;;;26.47;50.64;100235.03;4886758;29;20424;-74
2023/09/16 13:37:38;;;;;;;7.07;6.00;;;;;;;26.44;50.64;100232.84;4895422;29;20208;-75
2023/09/16 13:40:57;;;;;;;13.68;8.15;;;;;;;26.40;51.32;100224.38;4919100;29;20216;-74
2023/09/16 13:46:55;;;;;;;10.80;5.50;;;;;;;26.36;50.85;100223.25;4930608;29;20204;-69
2023/09/16 13:52:43;;;;;;;10.27;7.32;;;;;;;26.23;51.47;100224.44;4936511;29;20238;-73
2023/09/16 13:55:14;;;;;;;9.93;5.75;;;;;;;26.23;52.22;100229.06;4941010;29;20232;-70
2023/09/16 13:57:58;;;;;;;8.20;6.07;;;;;;;26.19;52.47;100226.06;4925470;29;20212;-69
2023/09/16 14:00:32;;;;;;;7.32;5.55;;;;;;;26.18;52.47;100226.31;4927514;29;20212;-78
2023/09/16 14:03:08;;;;;;;11.55;5.88;;;;;;;26.18;52.85;100231.75;4927948;29;20243;-75
2023/09/16 14:05:51;;;;;;;7.72;5.80;;;;;;;26.20;52.98;100224.16;4930147;29;20227;-73
2023/09/16 14:08:38;;;;;;;9.85;6.13;;;;;;;26.20;52.84;100221.44;4908798;29;20243;-79
2023/09/16 14:11:11;;;;;;;7.18;5.68;;;;;;;26.18;52.89;100220.88;4931521;29;20212;-75
2023/09/16 14:13:48;;;;;;;36.88;27.90;;;;;;;26.14;53.53;100214.28;4928378;29;20244;-74
2023/09/16 14:16:50;;;;;;;18.67;12.32;;;;;;;26.10;54.13;100214.00;4935229;29;20580;-71
2023/09/16 14:19:36;;;;;;;;;;;;;;;;;;;;;
2023/09/16 14:22:29;;;;;;;12.70;7.32;;;;;;;25.99;54.75;100222.28;4934374;29;20323;-71
2023/09/16 14:25:05;;;;;;;10.65;7.60;;;;;;;25.93;55.21;100228.75;4921825;29;20291;-76
2023/09/16 14:27:37;;;;;;;11.02;7.22;;;;;;;25.91;55.41;100230.91;4933972;29;20197;-70
2023/09/16 14:30:05;;;;;;;15.18;10.23;;;;;;;25.85;55.55;100221.88;4921563;29;20300;-79
2023/09/16 14:32:35;;;;;;;14.70;9.85;;;;;;;25.79;56.09;100229.13;4920297;29;20201;-76
2023/09/16 14:35:03;;;;;;;13.95;7.68;;;;;;;25.76;55.49;100226.94;4925539;29;20339;-72
2023/09/16 14:37:31;;;;;;;8.05;6.78;;;;;;;25.74;56.08;100223.66;4919768;29;20847;-78
2023/09/16 14:39:59;;;;;;;12.82;7.75;;;;;;;25.72;57.02;100223.06;4926645;29;20219;-78
2023/09/16 14:42:27;;;;;;;10.68;7.78;;;;;;;25.71;56.72;100224.16;4920869;29;21093;-75
2023/09/16 14:44:55;;;;;;;8.85;6.63;;;;;;;25.68;56.63;100221.13;4921526;29;20603;-78
2023/09/16 14:47:23;;;;;;;9.45;6.50;;;;;;;25.66;56.37;100223.28;4925607;29;20611;-79
2023/09/16 14:49:52;;;;;;;9.93;6.60;;;;;;;25.66;55.81;100217.84;4924628;29;20201;-77
2023/09/16 14:52:20;;;;;;;7.53;6.20;;;;;;;25.63;56.38;100221.88;4923040;29;20236;-75
2023/09/16 14:54:49;;;;;;;11.20;6.60;;;;;;;25.64;57.23;100220.81;4921324;29;20564;-77
2023/09/16 14:57:17;;;;;;;11.13;7.25;;;;;;;25.63;57.30;100224.59;4920429;29;20208;-79
2023/09/16 14:59:45;;;;;;;13.38;7.63;;;;;;;25.63;57.55;100224.59;4920986;29;20212;-73
2023/09/16 15:02:13;;;;;;;11.18;7.80;;;;;;;25.59;57.67;100222.63;4918656;29;20232;-76
2023/09/16 15:04:41;;;;;;;8.32;7.00;;;;;;;25.57;58.12;100216.63;4921014;29;20617;-81
2023/09/16 15:07:11;;;;;;;11.35;6.57;;;;;;;25.54;58.45;100220.66;4921210;29;20295;-74
2023/09/16 15:09:41;;;;;;;8.77;6.72;;;;;;;25.55;58.91;100218.75;4925078;29;20228;-78
2023/09/16 15:12:11;;;;;;;8.20;6.38;;;;;;;25.52;58.99;100222.78;4927504;29;20458;-77
2023/09/16 15:14:40;;;;;;;14.25;6.18;;;;;;;25.51;59.12;100214.91;4930068;29;20227;-76
2023/09/16 15:17:10;;;;;;;9.65;5.85;;;;;;;25.47;59.20;100220.03;4930820;29;20219;-74
2023/09/16 15:19:41;;;;;;;10.70;6.43;;;;;;;25.47;59.15;100225.44;4929812;29;20216;-71
2023/09/16 15:22:11;;;;;;;8.23;5.63;;;;;;;25.43;58.58;100224.28;4928277;29;20552;-78
2023/09/16 15:24:41;;;;;;;9.25;5.65;;;;;;;25.42;58.86;100228.06;4928896;29;20205;-73
2023/09/16 15:27:09;;;;;;;11.15;6.22;;;;;;;25.40;58.68;100217.50;4929864;29;20215;-72
2023/09/16 15:29:38;;;;;;;11.73;7.78;;;;;;;25.40;58.57;100222.94;4928962;29;20220;-76
2023/09/16 15:32:09;;;;;;;8.52;6.38;;;;;;;25.39;58.96;100218.56;4931589;29;20276;-78
2023/09/16 15:34:57;;;;;;;7.38;5.93;;;;;;;25.37;59.28;100218.00;4936051;29;20335;-76
2023/09/16 15:37:28;;;;;;;9.88;5.80;;;;;;;25.36;59.15;100226.38;4933597;29;20241;-76
2023/09/16 15:39:57;;;;;;;9.32;6.50;;;;;;;25.36;59.10;100220.94;4933189;29;20241;-77
2023/09/16 15:42:28;;;;;;;8.70;5.90;;;;;;;25.37;59.26;100222.59;4934104;29;20232;-77
2023/09/16 15:44:57;;;;;;;8.68;6.50;;;;;;;25.38;59.43;100226.94;4935350;29;20212;-78
2023/09/16 15:47:25;;;;;;;8.45;5.50;;;;;;;25.36;59.57;100218.22;4934046;29;20219;-73
2023/09/16 15:49:59;;;;;;;9.43;6.25;;;;;;;25.39;58.92;100215.03;4934152;29;20200;-78
2023/09/16 15:52:35;;;;;;;15.73;6.43;;;;;;;25.39;59.22;100220.47;4934710;29;20335;-77
2023/09/16 15:55:07;;;;;;;12.55;8.73;;;;;;;25.40;59.15;100216.66;4933875;29;20292;-79
2023/09/16 15:57:43;;;;;;;12.23;8.13;;;;;;;25.39;59.45;100223.16;4935947;29;20208;-72
2023/09/16 16:00:13;;;;;;;11.70;7.93;;;;;;;25.38;59.53;100226.94;4936764;29;20200;-74
2023/09/16 16:02:44;;;;;;;11.48;7.07;;;;;;;25.36;59.96;100234.53;4932034;29;20208;-71
2023/09/16 16:05:15;;;;;;;18.17;6.45;;;;;;;25.35;60.50;100230.16;4929535;29;20687;-78
2023/09/16 16:07:45;;;;;;;12.25;7.70;;;;;;;25.33;61.11;100235.03;4932265;29;20201;-79
2023/09/16 16:10:16;;;;;;;10.23;6.90;;;;;;;25.33;60.27;100232.31;4934735;29;20243;-75
2023/09/16 16:12:46;;;;;;;10.30;7.22;;;;;;;25.32;60.40;100245.06;4929895;29;20216;-74
2023/09/16 16:15:15;;;;;;;11.05;8.07;;;;;;;25.32;60.53;100233.41;4930266;29;20224;-74
2023/09/16 16:17:43;;;;;;;14.07;8.35;;;;;;;25.27;60.54;100239.56;4925169;29;20200;-78
2023/09/16 16:20:12;;;;;;;13.80;6.82;;;;;;;25.24;60.97;100236.53;4927271;29;20257;-77
2023/09/16 16:22:39;;;;;;;10.70;7.80;;;;;;;25.22;61.14;100242.22;4928268;29;20205;-78
2023/09/16 16:25:09;;;;;;;12.25;7.13;;;;;;;25.20;61.42;100240.81;4925961;29;20214;-78
2023/09/16 16:27:37;;;;;;;13.45;7.72;;;;;;;25.18;62.18;100243.75;4923861;29;20217;-71
2023/09/16 16:30:07;;;;;;;10.98;7.00;;;;;;;25.18;62.58;100240.22;4923325;29;20274;-78
2023/09/16 16:32:35;;;;;;;11.18;6.75;;;;;;;25.17;63.42;100239.41;4920240;29;20644;-79
2023/09/16 16:35:04;;;;;;;10.77;7.20;;;;;;;25.16;62.99;100235.03;4923350;29;20327;-76
2023/09/16 16:37:32;;;;;;;9.27;6.07;;;;;;;25.15;63.12;100238.03;4923061;29;20281;-72
2023/09/16 16:40:00;;;;;;;11.23;6.30;;;;;;;25.12;63.63;100239.34;4925122;29;20208;-81
2023/09/16 16:42:30;;;;;;;12.57;6.18;;;;;;;25.09;63.40;100240.66;4925057;29;20742;-70
2023/09/16 16:44:58;;;;;;;14.50;6.22;;;;;;;25.06;64.01;100235.75;4927905;29;20219;-81
2023/09/16 16:47:26;;;;;;;12.75;6.60;;;;;;;25.02;64.98;100241.91;4924944;29;20209;-80
2023/09/16 16:49:55;;;;;;;15.07;6.80;;;;;;;24.99;64.61;100245.91;4925035;29;20209;-77
2023/09/16 16:52:23;;;;;;;11.38;6.70;;;;;;;24.96;64.83;100243.72;4922746;29;20213;-75
2023/09/16 16:54:51;;;;;;;9.98;6.53;;;;;;;24.94;64.71;100239.59;4920366;29;20233;-78
2023/09/16 16:57:19;;;;;;;12.23;5.82;;;;;;;24.93;64.82;100235.25;4924151;29;20213;-73
2023/09/16 16:59:48;;;;;;;9.38;5.35;;;;;;;24.92;64.53;100239.03;4923016;29;20208;-77
2023/09/16 17:02:16;;;;;;;12.07;5.88;;;;;;;24.91;64.27;100237.34;4923525;29;20220;-77
2023/09/16 17:04:44;;;;;;;9.85;6.65;;;;;;;24.86;64.84;100235.41;4924622;29;20687;-72
2023/09/16 17:07:13;;;;;;;8.85;6.85;;;;;;;24.85;65.05;100227.50;4926362;29;20204;-78
2023/09/16 17:09:41;;;;;;;10.07;6.88;;;;;;;24.80;64.97;100233.69;4923257;29;20307;-76
2023/09/16 17:12:09;;;;;;;8.70;5.97;;;;;;;24.78;64.63;100235.00;4923792;29;20257;-78
2023/09/16 17:14:37;;;;;;;9.10;6.35;;;;;;;24.74;64.73;100232.75;4923550;29;20232;-72
2023/09/16 17:17:07;;;;;;;11.02;7.13;;;;;;;24.72;64.93;100239.47;4926340;29;20188;-76
2023/09/16 17:19:36;;;;;;;9.05;7.13;;;;;;;24.69;64.82;100237.28;4920965;29;20621;-75
2023/09/16 17:22:07;;;;;;;12.10;7.35;;;;;;;24.67;64.56;100242.13;4921099;29;20240;-79
2023/09/16 17:24:36;;;;;;;10.23;6.93;;;;;;;24.66;64.74;100238.59;4922942;29;20204;-79
2023/09/16 17:27:05;;;;;;;12.52;7.05;;;;;;;24.64;64.94;100242.59;4920928;29;20220;-75
2023/09/16 17:29:33;;;;;;;13.15;6.47;;;;;;;24.61;64.85;100240.41;4920696;29;20271;-81
2023/09/16 17:32:01;;;;;;;11.05;6.30;;;;;;;24.60;65.11;100242.28;4922214;29;20251;-77
2023/09/16 17:34:30;;;;;;;17.25;6.95;;;;;;;24.59;65.59;100235.22;4924846;29;20650;-79
2023/09/16 17:36:59;;;;;;;11.63;6.88;;;;;;;24.58;65.87;100227.34;4920174;29;20327;-81
2023/09/16 17:39:28;;;;;;;9.88;6.68;;;;;;;24.55;65.43;100231.34;4922675;29;20292;-81
2023/09/16 17:41:56;;;;;;;8.63;6.43;;;;;;;24.55;65.55;100228.63;4918648;29;20239;-80
2023/09/16 17:44:24;;;;;;;8.90;6.30;;;;;;;24.53;65.86;100229.97;4919989;29;20200;-73
2023/09/16 17:46:54;;;;;;;7.68;6.22;;;;;;;24.49;65.85;100229.63;4917407;29;20648;-79
2023/09/16 17:49:22;;;;;;;11.32;6.28;;;;;;;24.47;66.36;100234.47;4920002;29;20218;-76
2023/09/16 17:51:51;;;;;;;8.95;5.95;;;;;;;24.45;66.79;100235.78;4922926;29;20201;-74
2023/09/16 17:54:19;;;;;;;9.70;6.85;;;;;;;24.42;66.86;100236.28;4921137;29;20251;-79
2023/09/16 17:56:47;;;;;;;13.05;9.48;;;;;;;24.40;67.62;100238.41;4921187;29;20607;-75
2023/09/16 17:59:15;;;;;;;13.38;9.02;;;;;;;24.37;67.66;100243.22;4928804;29;20314;-76
2023/09/16 18:01:43;;;;;;;10.50;8.05;;;;;;;24.36;67.82;100235.38;4924272;29;20707;-82
2023/09/16 18:04:11;;;;;;;12.70;7.85;;;;;;;24.35;67.66;100233.72;4926019;29;20296;-74
2023/09/16 18:06:40;;;;;;;10.75;8.27;;;;;;;24.32;67.66;100235.03;4922529;29;20212;-75
2023/09/16 18:09:11;;;;;;;12.48;7.30;;;;;;;24.31;67.61;100232.56;4920226;29;20211;-76
2023/09/16 18:11:39;;;;;;;10.50;8.00;;;;;;;24.30;67.55;100242.56;4917826;29;20275;-76
2023/09/16 18:14:07;;;;;;;11.77;9.07;;;;;;;24.28;67.72;100244.69;4917291;29;20214;-78
2023/09/16 18:16:37;;;;;;;10.65;7.80;;;;;;;24.26;68.10;100249.56;4919532;29;20229;-74
2023/09/16 18:19:05;;;;;;;13.90;7.55;;;;;;;24.25;68.79;100260.63;4916801;29;20330;-77
2023/09/16 18:21:33;;;;;;;12.85;8.15;;;;;;;24.25;69.27;100266.88;4917926;29;20255;-72
2023/09/16 18:24:03;;;;;;;11.60;8.25;;;;;;;24.24;69.43;100270.66;4919331;29;20323;-78
2023/09/16 18:26:35;;;;;;;11.82;8.85;;;;;;;24.23;69.10;100269.00;4919116;29;20200;-76
2023/09/16 18:29:03;;;;;;;14.02;9.23;;;;;;;24.21;69.08;100273.81;4921949;29;20200;-75
2023/09/16 18:31:34;;;;;;;19.45;9.65;;;;;;;24.18;69.26;100270.78;4921653;29;20373;-70
2023/09/16 18:34:03;;;;;;;11.57;8.57;;;;;;;24.17;70.10;100275.38;4916409;29;20260;-79
2023/09/16 18:36:31;;;;;;;15.90;9.02;;;;;;;24.14;70.50;100281.25;4918140;29;20224;-74
2023/09/16 18:39:00;;;;;;;14.38;10.18;;;;;;;24.12;70.25;100285.25;4926675;29;20627;-78
2023/09/16 18:41:28;;;;;;;17.17;10.10;;;;;;;24.11;70.03;100284.44;4924306;29;20743;-79
2023/09/16 18:44:03;;;;;;;18.13;11.57;;;;;;;24.10;69.92;100282.78;4920708;29;20217;-76
2023/09/16 18:46:32;;;;;;;17.40;11.55;;;;;;;24.07;70.53;100275.16;4919550;29;20212;-79
2023/09/16 18:49:00;;;;;;;17.90;10.45;;;;;;;24.05;70.77;100274.56;4916505;29;20216;-76
2023/09/16 18:51:29;;;;;;;12.55;10.10;;;;;;;24.04;71.64;100275.63;4920946;29;20263;-77
2023/09/16 18:53:57;;;;;;;10.88;8.85;;;;;;;24.00;71.81;100279.91;4924526;29;20235;-76
2023/09/16 18:56:25;;;;;;;12.30;8.20;;;;;;;23.99;72.53;100283.66;4926332;29;20231;-77
2023/09/16 18:58:53;;;;;;;12.07;8.30;;;;;;;23.99;72.41;100289.09;4922138;29;20292;-81
2023/09/16 19:01:22;;;;;;;12.18;7.80;;;;;;;23.97;72.67;100286.63;4927468;29;20234;-76
2023/09/16 19:03:51;;;;;;;18.10;7.82;;;;;;;23.96;72.47;100289.56;4920359;29;20322;-77
2023/09/16 19:06:19;;;;;;;18.55;8.07;;;;;;;23.94;72.09;100283.56;4924878;29;20405;-73
2023/09/16 19:08:47;;;;;;;9.43;7.80;;;;;;;23.92;72.59;100283.00;4925184;29;20241;-81
2023/09/16 19:11:16;;;;;;;13.00;8.20;;;;;;;23.90;72.13;100282.41;4925632;29;20235;-80
2023/09/16 19:13:44;;;;;;;12.65;8.05;;;;;;;23.89;72.22;100288.88;4926556;29;20213;-74
2023/09/16 19:16:13;;;;;;;11.65;7.55;;;;;;;23.89;72.63;100292.41;4926755;29;20576;-80
2023/09/16 19:18:43;;;;;;;12.68;8.20;;;;;;;23.89;72.79;100299.72;4926151;29;20298;-73
2023/09/16 19:21:11;;;;;;;15.45;8.02;;;;;;;23.88;72.58;100304.28;4925731;29;20215;-78
2023/09/16 19:23:40;;;;;;;15.63;10.45;;;;;;;23.87;72.63;100312.66;4925282;29;20216;-79
2023/09/16 19:26:08;;;;;;;16.25;8.45;;;;;;;23.86;72.92;100308.28;4923757;29;20318;-81
2023/09/16 19:28:36;;;;;;;12.30;8.07;;;;;;;23.86;73.29;100311.00;4922051;29;21040;-77
2023/09/16 19:31:04;;;;;;;10.23;7.05;;;;;;;23.83;73.19;100303.38;4923492;29;20204;-75
2023/09/16 19:33:32;;;;;;;13.13;6.50;;;;;;;23.81;73.72;100308.19;4921464;29;20217;-79
2023/09/16 19:36:02;;;;;;;16.52;6.68;;;;;;;23.79;74.02;100307.59;4922245;29;20208;-76
2023/09/16 19:38:32;;;;;;;9.80;6.70;;;;;;;23.76;73.72;100308.06;4921559;29;20224;-78
2023/09/16 19:41:01;;;;;;;11.23;6.68;;;;;;;23.74;74.63;100308.34;4925290;29;20276;-76
2023/09/16 19:43:30;;;;;;;16.40;6.25;;;;;;;23.73;75.17;100308.56;4925952;29;20203;-78
2023/09/16 19:46:02;;;;;;;10.73;7.13;;;;;;;23.70;75.32;100303.63;4925014;29;20216;-76
2023/09/16 19:48:31;;;;;;;15.68;6.82;;;;;;;23.68;75.32;100303.03;4925063;29;20247;-74
2023/09/16 19:51:00;;;;;;;13.40;7.32;;;;;;;23.65;75.34;100304.34;4925717;29;20209;-82
2023/09/16 19:53:29;;;;;;;11.32;8.00;;;;;;;23.61;75.43;100287.75;4925896;29;20272;-77
2023/09/16 19:55:57;;;;;;;9.77;7.57;;;;;;;23.58;75.08;100301.75;4924595;29;20213;-71
2023/09/16 19:58:25;;;;;;;12.73;8.63;;;;;;;23.56;75.93;100289.53;4920116;29;20216;-76
2023/09/16 20:00:55;;;;;;;12.48;8.73;;;;;;;23.53;75.56;100290.81;4922207;29;20304;-76
2023/09/16 20:03:23;;;;;;;16.67;8.77;;;;;;;23.53;75.88;100298.13;4920386;29;20208;-77
2023/09/16 20:05:51;;;;;;;13.20;7.88;;;;;;;23.52;75.48;100297.28;4921540;29;20217;-77
2023/09/16 20:08:19;;;;;;;15.15;7.90;;;;;;;23.50;76.02;100294.00;4920099;29;20267;-77
2023/09/16 20:10:49;;;;;;;11.88;6.85;;;;;;;23.50;76.02;100288.59;4931645;29;20214;-72
2023/09/16 20:13:17;;;;;;;11.93;7.03;;;;;;;23.49;76.21;100297.75;4924525;29;20298;-74
2023/09/16 20:15:45;;;;;;;12.32;8.25;;;;;;;23.46;75.84;100295.50;4924185;29;20208;-75
2023/09/16 20:18:13;;;;;;;10.85;7.82;;;;;;;23.46;75.30;100306.34;4919969;29;20324;-81
2023/09/16 20:20:41;;;;;;;8.50;6.53;;;;;;;23.48;74.56;100306.09;4924597;29;20205;-79
2023/09/16 20:23:09;;;;;;;11.38;6.47;;;;;;;23.46;74.38;100300.94;4927765;29;20208;-76
2023/09/16 20:25:38;;;;;;;8.23;6.90;;;;;;;23.45;74.05;100307.38;4933459;29;20243;-70
2023/09/16 20:28:08;;;;;;;9.90;6.00;;;;;;;23.46;73.81;100300.09;4932181;29;20219;-73
2023/09/16 20:30:36;;;;;;;10.15;6.30;;;;;;;23.45;73.75;100301.97;4940434;29;20220;-76
2023/09/16 20:33:05;;;;;;;9.52;6.53;;;;;;;23.43;74.11;100295.97;4925132;29;20213;-79
2023/09/16 20:35:33;;;;;;;11.68;6.75;;;;;;;23.41;73.81;100298.09;4922955;29;20205;-75
2023/09/16 20:38:03;;;;;;;9.20;6.43;;;;;;;23.39;74.41;100289.41;4913141;29;20243;-73
2023/09/16 20:40:31;;;;;;;8.80;6.38;;;;;;;23.37;75.30;100277.97;4918554;29;20280;-76
2023/09/16 20:43:02;;;;;;;8.57;6.60;;;;;;;23.37;74.88;100264.47;4919717;29;20568;-72
2023/09/16 20:45:32;;;;;;;8.63;6.40;;;;;;;23.35;75.28;100263.88;4920908;29;20655;-77
2023/09/16 20:48:04;;;;;;;8.32;6.07;;;;;;;23.34;74.65;100264.91;4920609;29;20526;-77
2023/09/16 20:50:33;;;;;;;9.68;5.93;;;;;;;23.33;75.00;100263.28;4921981;29;20350;-82
2023/09/16 20:53:03;;;;;;;10.13;6.65;;;;;;;23.32;74.83;100258.91;4921904;29;20556;-81
2023/09/16 20:55:31;;;;;;;8.25;6.65;;;;;;;23.31;75.10;100265.38;4920887;29;20331;-72
2023/09/16 20:57:59;;;;;;;9.73;6.75;;;;;;;23.32;74.91;100266.22;4924410;29;20224;-76
2023/09/16 21:00:27;;;;;;;8.45;5.55;;;;;;;23.27;73.02;100254.22;4921105;29;20231;-81
2023/09/16 21:02:57;;;;;;;9.90;6.78;;;;;;;23.31;72.14;100253.78;4919771;29;20319;-78
2023/09/16 21:05:25;;;;;;;14.13;7.20;;;;;;;23.32;72.21;100249.97;4920784;29;20215;-76
2023/09/16 21:07:53;;;;;;;8.65;6.28;;;;;;;23.34;72.72;100251.41;4922512;29;20204;-80
2023/09/16 21:10:21;;;;;;;11.48;6.95;;;;;;;23.34;73.13;100254.09;4922096;29;20220;-81
2023/09/16 21:12:49;;;;;;;9.30;6.72;;;;;;;23.32;73.57;100261.63;4925247;29;20208;-83
2023/09/16 21:15:17;;;;;;;15.07;7.38;;;;;;;23.31;73.76;100259.19;4921776;29;20534;-79
2023/09/16 21:17:46;;;;;;;9.93;7.65;;;;;;;23.29;73.78;100262.13;4924457;29;20232;-71
2023/09/16 21:20:15;;;;;;;11.70;7.20;;;;;;;23.26;74.70;100258.00;4931362;29;20204;-81
2023/09/16 21:22:43;;;;;;;9.25;7.22;;;;;;;23.24;74.12;100259.28;4933637;29;20208;-72
2023/09/16 21:25:13;;;;;;;10.50;7.32;;;;;;;23.23;74.41;100263.03;4936158;29;20208;-71
2023/09/16 21:27:41;;;;;;;10.15;8.27;;;;;;;23.19;74.90;100257.28;4928451;29;20240;-77
2023/09/16 21:30:10;;;;;;;11.85;8.15;;;;;;;23.18;74.67;100260.22;4923541;28;20213;-80
2023/09/16 21:32:38;;;;;;;14.93;7.53;;;;;;;23.16;74.28;100265.03;4924043;29;20261;-82
2023/09/16 21:35:07;;;;;;;12.85;8.23;;;;;;;23.15;74.74;100271.50;4926877;29;20208;-76
2023/09/16 21:37:38;;;;;;;13.30;8.90;;;;;;;23.12;74.81;100269.28;4929370;29;20232;-78
2023/09/16 21:40:07;;;;;;;10.48;8.82;;;;;;;23.10;74.80;100266.81;4932409;29;20934;-73
2023/09/16 21:42:36;;;;;;;12.73;9.75;;;;;;;23.10;74.82;100279.50;4928372;29;20284;-76
2023/09/16 21:45:05;;;;;;;12.63;9.63;;;;;;;23.06;74.91;100281.03;4929913;29;20623;-82
2023/09/16 21:47:33;;;;;;;11.35;9.07;;;;;;;23.06;74.70;100284.56;4929260;29;20200;-71
2023/09/16 21:50:02;;;;;;;11.82;8.32;;;;;;;23.04;74.74;100275.06;4927143;29;20208;-73
2023/09/16 21:52:30;;;;;;;10.40;8.10;;;;;;;23.03;74.98;100262.59;4931468;29;20201;-82
2023/09/16 21:55:00;;;;;;;13.60;8.05;;;;;;;23.00;76.25;100268.44;4926864;29;20303;-79
2023/09/16 21:57:28;;;;;;;10.73;9.00;;;;;;;22.96;75.81;100261.84;4928802;29;20234;-79
2023/09/16 21:59:57;;;;;;;12.55;8.63;;;;;;;22.96;75.89;100267.25;4930157;29;20280;-81
2023/09/16 22:02:25;;;;;;;10.35;9.10;;;;;;;22.94;76.20;100261.28;4930813;29;20215;-73
2023/09/16 22:04:55;;;;;;;16.55;8.88;;;;;;;22.95;76.40;100262.94;4930824;29;20212;-74
2023/09/16 22:07:24;;;;;;;9.73;7.80;;;;;;;22.93;76.69;100259.63;4917263;29;20288;-78
2023/09/16 22:09:53;;;;;;;11.95;8.27;;;;;;;22.93;76.82;100262.34;4928595;29;20649;-78
2023/09/16 22:12:23;;;;;;;9.55;7.63;;;;;;;22.92;76.86;100266.09;4930385;29;20204;-76